Time;durP1;ratioP1;P1;durP2;ratioP2;P2;SDS_P1;SDS_P2;PMS_P1;PMS_P2;Temp;Humidity;BMP_temperature;BMP_pressure;BME280_temperature;BME280_humidity;BME280_pressure;Samples;Min_cycle;Max_cycle;Signal;HPM_P1;HPM_P2
2021/06/02 00:00:15;;;;;;;5.20;2.02;;;;;;;12.18;100.00;98856.11;1610843;87;21689;-65
2021/06/02 00:02:54;;;;;;;5.47;1.98;;;;;;;12.19;100.00;98863.14;1611740;87;21052;-65
2021/06/02 00:05:24;;;;;;;5.08;1.87;;;;;;;12.21;100.00;98857.38;1613201;87;21000;-65
2021/06/02 00:07:58;;;;;;;5.75;2.00;;;;;;;12.23;100.00;98848.97;1625503;86;21902;-66
2021/06/02 00:10:30;;;;;;;4.80;2.05;;;;;;;12.25;100.00;98840.56;1625534;86;21060;-66
2021/06/02 00:13:01;;;;;;;4.72;2.08;;;;;;;12.23;100.00;98841.91;1625529;86;21060;-66
2021/06/02 00:15:33;;;;;;;5.30;2.20;;;;;;;12.23;100.00;98837.94;1625473;86;21647;-65
2021/06/02 00:18:09;;;;;;;5.50;2.27;;;;;;;12.25;100.00;98837.91;1625522;86;21642;-65
2021/06/02 00:20:38;;;;;;;2.22;1.72;;;;;;;12.27;100.00;98833.47;1625517;86;21502;-66
2021/06/02 00:23:07;;;;;;;3.15;2.22;;;;;;;12.27;100.00;98830.83;1625389;86;21571;-65
2021/06/02 00:25:41;;;;;;;6.65;2.20;;;;;;;12.25;100.00;98832.18;1625551;86;21559;-66
2021/06/02 00:28:10;;;;;;;3.98;2.20;;;;;;;12.26;100.00;98837.02;1625412;86;21073;-65
2021/06/02 00:30:39;;;;;;;7.10;1.90;;;;;;;12.27;100.00;98838.77;1625526;86;21001;-65
2021/06/02 00:33:08;;;;;;;4.00;2.00;;;;;;;12.25;100.00;98830.86;1625518;86;21113;-66
2021/06/02 00:35:43;;;;;;;3.87;1.90;;;;;;;12.23;100.00;98835.75;1625569;86;21543;-66
2021/06/02 00:38:13;;;;;;;5.35;1.90;;;;;;;12.21;100.00;98837.55;1625466;86;21753;-65
2021/06/02 00:40:50;;;;;;;6.12;2.00;;;;;;;12.21;100.00;98834.45;1625423;86;21160;-65
2021/06/02 00:43:19;;;;;;;4.33;1.80;;;;;;;12.22;100.00;98830.91;1625469;86;21656;-65
2021/06/02 00:45:51;;;;;;;2.47;1.80;;;;;;;12.24;100.00;98833.53;1625558;86;21713;-65
2021/06/02 00:48:20;;;;;;;7.53;2.05;;;;;;;12.25;100.00;98831.30;1625351;86;21619;-65
2021/06/02 07:24:54;;;;;;;3.22;2.75;;;;;;;11.61;100.00;98785.64;1799972;78;22672;-67
2021/06/02 07:27:23;;;;;;;2.83;2.02;;;;;;;11.60;100.00;98795.78;1757908;80;20992;-67
2021/06/02 07:29:50;;;;;;;3.65;1.92;;;;;;;11.62;100.00;98803.69;1757780;80;21988;-67
2021/06/02 07:32:19;;;;;;;4.25;2.47;;;;;;;11.65;100.00;98806.27;1744053;80;21470;-67
2021/06/02 07:34:49;;;;;;;5.25;2.60;;;;;;;11.64;100.00;98800.12;1720409;83;21041;-67
2021/06/02 07:37:18;;;;;;;5.83;2.27;;;;;;;11.67;100.00;98811.09;1724312;83;20981;-67
2021/06/02 07:39:48;;;;;;;3.30;2.10;;;;;;;11.68;100.00;98807.09;1710774;83;20885;-67
2021/06/02 07:42:16;;;;;;;5.90;2.37;;;;;;;11.70;100.00;98806.20;1710651;83;21523;-67
2021/06/02 07:44:44;;;;;;;5.67;2.40;;;;;;;11.71;100.00;98815.42;1690591;83;20907;-68
2021/06/02 07:47:14;;;;;;;4.92;2.70;;;;;;;11.72;100.00;98808.38;1710581;83;20948;-67
2021/06/02 07:49:42;;;;;;;3.75;2.20;;;;;;;11.72;100.00;98822.45;1710650;83;21049;-68
2021/06/02 07:52:12;;;;;;;4.80;2.42;;;;;;;11.72;100.00;98823.78;1710715;83;21011;-69
2021/06/02 07:54:40;;;;;;;4.47;2.10;;;;;;;11.71;100.00;98820.70;1727045;83;21107;-68
2021/06/02 07:57:09;;;;;;;5.35;2.50;;;;;;;11.70;100.00;98825.57;1727139;82;20859;-67
2021/06/02 07:59:39;;;;;;;5.60;2.50;;;;;;;11.70;100.00;98818.09;1727157;81;21473;-66
2021/06/02 08:02:07;;;;;;;5.15;2.45;;;;;;;11.68;100.00;98821.63;1727114;83;21062;-68
2021/06/02 08:04:35;;;;;;;3.17;2.30;;;;;;;11.71;100.00;98821.16;1727070;81;21030;-71
2021/06/02 08:07:07;;;;;;;6.50;2.40;;;;;;;11.72;100.00;98828.19;1680616;83;21149;-69
2021/06/02 08:09:38;;;;;;;4.05;2.62;;;;;;;11.77;100.00;98839.11;1707764;83;20964;-70
2021/06/02 08:12:10;;;;;;;7.15;2.40;;;;;;;11.84;100.00;98843.91;1711452;82;21009;-70
2021/06/02 08:14:38;;;;;;;2.98;1.82;;;;;;;11.91;100.00;98845.55;1707994;83;21510;-70
2021/06/02 08:17:07;;;;;;;3.70;2.17;;;;;;;11.96;100.00;98845.91;1701553;82;21020;-70
2021/06/02 08:19:35;;;;;;;3.17;2.25;;;;;;;12.02;100.00;98846.25;1721809;82;21107;-69
2021/06/02 08:22:05;;;;;;;4.05;2.15;;;;;;;12.04;100.00;98839.16;1721731;82;21552;-69
2021/06/02 08:24:40;;;;;;;2.98;2.25;;;;;;;12.06;100.00;98841.33;1711989;82;21094;-69
2021/06/02 08:27:12;;;;;;;7.25;2.22;;;;;;;12.05;100.00;98834.30;1673572;82;20988;-66
2021/06/02 08:29:40;;;;;;;3.77;2.00;;;;;;;12.07;100.00;98841.76;1740720;80;20928;-66
2021/06/02 08:32:11;;;;;;;5.90;3.40;;;;;;;12.09;100.00;98842.60;1735407;80;21408;-70
2021/06/02 08:34:39;;;;;;;7.78;2.70;;;;;;;12.06;100.00;98836.50;1753266;80;21456;-72
2021/06/02 08:37:07;;;;;;;2.90;2.65;;;;;;;12.03;100.00;98840.52;1753087;80;20969;-71
2021/06/02 08:39:34;;;;;;;5.97;2.17;;;;;;;12.01;100.00;98847.15;1752786;80;21703;-71
2021/06/02 08:42:04;;;;;;;4.65;2.40;;;;;;;12.00;100.00;98841.44;1752815;80;20933;-70
2021/06/02 08:44:32;;;;;;;3.92;2.02;;;;;;;12.00;100.00;98841.44;1753508;80;21575;-69
2021/06/02 08:47:01;;;;;;;5.00;2.35;;;;;;;11.96;100.00;98845.91;1752463;80;20933;-67
2021/06/02 08:49:29;;;;;;;4.97;2.40;;;;;;;11.96;100.00;98855.61;1752586;80;20939;-67
2021/06/02 08:52:00;;;;;;;4.25;2.47;;;;;;;11.96;100.00;98850.31;1752521;80;21472;-68
2021/06/02 08:54:29;;;;;;;5.25;2.10;;;;;;;11.96;100.00;98853.84;1752534;80;20882;-67
2021/06/02 08:57:00;;;;;;;6.83;2.25;;;;;;;11.96;100.00;98860.44;1752469;80;21130;-68
2021/06/02 08:59:29;;;;;;;6.55;2.40;;;;;;;11.98;100.00;98861.73;1700440;82;20890;-67
2021/06/02 09:01:58;;;;;;;4.92;2.37;;;;;;;11.97;100.00;98866.16;1752762;80;20933;-67
2021/06/02 09:04:27;;;;;;;4.15;2.02;;;;;;;12.00;100.00;98867.00;1752439;80;20937;-67
2021/06/02 09:06:56;;;;;;;5.62;2.58;;;;;;;12.03;100.00;98873.56;1752920;80;20930;-67
2021/06/02 09:09:26;;;;;;;9.70;2.72;;;;;;;12.08;100.00;98872.58;1752491;80;21984;-67
2021/06/02 09:11:55;;;;;;;6.03;2.72;;;;;;;12.12;100.00;98867.67;1752430;80;20929;-67
2021/06/02 09:14:29;;;;;;;20.37;5.50;;;;;;;12.16;100.00;98873.33;1752487;80;20926;-66
2021/06/02 09:17:01;;;;;;;8.80;2.80;;;;;;;12.18;100.00;98880.78;1752921;80;20933;-69
2021/06/02 09:19:44;;;;;;;5.58;2.40;;;;;;;12.20;100.00;98888.69;1744324;82;20928;-68
2021/06/02 09:22:18;;;;;;;8.50;3.20;;;;;;;12.23;100.00;98892.61;1733167;81;22016;-66
2021/06/02 09:25:01;;;;;;;4.17;2.45;;;;;;;12.21;100.00;98868.83;1710092;83;20852;-69
2021/06/02 09:27:57;;;;;;;;;;;;;;;12.21;100.00;98875.89;1747266;80;21466;-67
2021/06/02 09:30:31;;;;;;;4.45;2.40;;;;;;;12.21;100.00;98877.22;1744723;80;20403;-68
2021/06/02 09:33:00;;;;;;;3.15;2.08;;;;;;;12.23;100.00;98884.67;1708881;82;21380;-66
2021/06/02 09:35:42;;;;;;;4.08;2.37;;;;;;;12.24;100.00;98877.16;1708711;82;21521;-66
2021/06/02 09:38:24;;;;;;;3.60;2.33;;;;;;;12.25;100.00;98876.27;1702674;83;20864;-68
2021/06/02 09:40:56;;;;;;;3.08;2.40;;;;;;;12.23;100.00;98870.12;1744429;80;21558;-66
2021/06/02 09:43:33;;;;;;;3.22;2.00;;;;;;;12.23;100.00;98873.64;1709008;84;20900;-65
2021/06/02 09:46:09;;;;;;;3.70;2.05;;;;;;;12.25;100.00;98874.94;1743866;80;20963;-67
2021/06/02 09:48:44;;;;;;;5.15;2.45;;;;;;;12.26;100.00;98885.49;1708686;84;21174;-69
2021/06/02 09:51:38;;;;;;;4.72;2.37;;;;;;;12.26;100.00;98876.69;1739336;80;21628;-66
2021/06/02 09:54:09;;;;;;;5.35;2.50;;;;;;;12.27;100.00;98885.91;1743356;80;21537;-67
2021/06/02 09:56:42;;;;;;;6.05;2.30;;;;;;;12.29;100.00;98880.59;1744018;80;21459;-68
2021/06/02 09:59:12;;;;;;;6.75;2.40;;;;;;;12.31;100.00;98887.22;1708800;83;21428;-68
2021/06/02 10:02:00;;;;;;;4.95;2.52;;;;;;;12.31;100.00;98877.52;1744921;80;21865;-68
2021/06/02 10:04:39;;;;;;;5.20;2.12;;;;;;;12.31;100.00;98886.77;1708710;83;20864;-68
2021/06/02 10:07:21;;;;;;;3.83;2.30;;;;;;;12.32;100.00;98899.09;1742809;80;21475;-66
2021/06/02 10:09:50;;;;;;;5.55;3.30;;;;;;;12.33;100.00;98894.67;1744857;80;20936;-67
2021/06/02 10:12:19;;;;;;;4.85;3.40;;;;;;;12.35;100.00;98897.72;1734196;82;21071;-67
2021/06/02 10:14:57;;;;;;;6.05;3.20;;;;;;;12.38;100.00;98896.80;1708791;84;21144;-67
2021/06/02 10:17:36;;;;;;;7.53;3.42;;;;;;;12.39;100.00;98896.77;1744543;81;20916;-68
2021/06/02 10:20:10;;;;;;;9.33;4.70;;;;;;;12.41;100.00;98902.03;1708514;82;21486;-67
2021/06/02 10:22:41;;;;;;;6.47;3.85;;;;;;;12.44;100.00;98900.20;1744681;81;20885;-67
2021/06/02 10:25:12;;;;;;;5.50;3.60;;;;;;;12.47;100.00;98908.08;1711635;83;20927;-68
2021/06/02 10:27:40;;;;;;;4.78;3.17;;;;;;;12.48;100.00;98903.22;1752822;80;21115;-68
2021/06/02 10:30:10;;;;;;;6.35;2.80;;;;;;;12.48;100.00;98912.47;1716468;83;21380;-68
2021/06/02 10:32:41;;;;;;;4.30;2.35;;;;;;;12.51;100.00;98914.19;1716674;82;20852;-67
2021/06/02 10:35:11;;;;;;;7.92;2.30;;;;;;;12.54;100.00;98908.84;1752497;81;20920;-67
2021/06/02 10:37:42;;;;;;;6.50;2.70;;;;;;;12.56;100.00;98909.24;1689523;83;21403;-68
2021/06/02 10:40:24;;;;;;;6.80;3.10;;;;;;;12.59;100.00;98917.13;1716443;83;21086;-68
2021/06/02 10:43:06;;;;;;;6.42;2.27;;;;;;;12.60;100.00;98918.00;1716620;83;20900;-67
2021/06/02 10:45:41;;;;;;;2.30;2.00;;;;;;;12.60;100.00;98916.67;1752552;80;28180;-67
2021/06/02 10:48:10;;;;;;;6.28;2.00;;;;;;;12.65;100.00;98915.27;1751872;80;21111;-68
2021/06/02 10:50:43;;;;;;;3.65;2.30;;;;;;;12.68;100.00;98924.47;1733772;82;20936;-67
2021/06/02 10:53:24;;;;;;;3.92;2.00;;;;;;;12.69;100.00;98927.09;1752066;80;21119;-68
2021/06/02 10:56:01;;;;;;;4.42;2.35;;;;;;;12.71;100.00;98920.45;1751842;80;21526;-67
2021/06/02 10:58:47;;;;;;;6.10;2.20;;;;;;;12.70;100.00;98933.25;1752173;82;20913;-67
2021/06/02 11:01:22;;;;;;;4.45;2.15;;;;;;;12.69;100.00;98927.54;1746167;80;21470;-65
2021/06/02 11:04:15;;;;;;;5.22;3.37;;;;;;;12.72;100.00;98927.03;1751804;80;21497;-66
2021/06/02 11:06:48;;;;;;;7.60;3.58;;;;;;;12.71;100.00;98932.36;1748818;80;21134;-67
2021/06/02 11:09:23;;;;;;;7.17;2.50;;;;;;;12.69;100.00;98929.73;1751777;80;20944;-67
2021/06/02 11:12:06;;;;;;;5.58;2.10;;;;;;;12.69;100.00;98931.51;1734127;81;21499;-67
2021/06/02 11:14:39;;;;;;;4.25;1.90;;;;;;;12.72;100.00;98925.71;1750865;80;21008;-67
2021/06/02 11:17:11;;;;;;;5.65;2.12;;;;;;;12.77;100.00;98936.21;1752047;80;20880;-67
2021/06/02 11:19:53;;;;;;;3.47;1.87;;;;;;;12.80;100.00;98929.57;1748073;80;20963;-66
2021/06/02 11:22:27;;;;;;;7.00;1.82;;;;;;;12.81;100.00;98928.67;1741540;80;21563;-67
2021/06/02 11:24:57;;;;;;;4.83;2.10;;;;;;;12.85;100.00;98929.03;1750199;80;20952;-66
2021/06/02 11:27:29;;;;;;;4.65;2.22;;;;;;;12.87;100.00;98933.84;1744540;80;20981;-66
2021/06/02 11:30:04;;;;;;;6.25;2.75;;;;;;;12.92;100.00;98935.95;1744630;80;20894;-67
2021/06/02 11:32:33;;;;;;;6.70;3.35;;;;;;;12.93;100.00;98942.55;1744577;80;20886;-67
2021/06/02 11:35:05;;;;;;;5.85;2.87;;;;;;;12.96;100.00;98950.88;1734229;81;20894;-67
2021/06/02 11:37:35;;;;;;;9.28;2.95;;;;;;;12.94;100.00;98942.09;1744597;81;20895;-66
2021/06/02 11:40:06;;;;;;;3.45;1.80;;;;;;;12.94;100.00;98943.42;1744786;80;21425;-67
2021/06/02 11:42:43;;;;;;;6.25;2.37;;;;;;;12.92;100.00;98946.55;1744768;80;20874;-66
2021/06/02 11:45:14;;;;;;;6.45;2.85;;;;;;;12.92;100.00;98942.58;1744807;80;21117;-66
2021/06/02 11:47:49;;;;;;;5.65;2.50;;;;;;;12.91;100.00;98944.80;1744616;80;21024;-66
2021/06/02 11:50:19;;;;;;;6.20;2.37;;;;;;;12.92;100.00;98953.16;1739667;80;21550;-66
2021/06/02 11:52:58;;;;;;;4.85;2.42;;;;;;;12.91;100.00;98952.74;1696084;84;20944;-66
2021/06/02 11:55:28;;;;;;;5.90;1.95;;;;;;;12.91;100.00;98960.69;1709014;82;21030;-66
2021/06/02 11:57:56;;;;;;;4.87;1.87;;;;;;;12.88;100.00;98960.74;1744629;81;21545;-66
2021/06/02 12:00:34;;;;;;;5.75;2.70;;;;;;;12.85;100.00;98963.45;1744415;81;20944;-66
2021/06/02 12:03:04;;;;;;;9.10;2.55;;;;;;;12.83;100.00;98973.19;1744625;81;20944;-66
2021/06/02 12:05:41;;;;;;;7.03;2.17;;;;;;;12.80;100.00;98981.19;1744708;81;20884;-66
2021/06/02 12:08:14;;;;;;;4.37;2.12;;;;;;;12.75;100.00;98980.36;1708744;83;20940;-66
2021/06/02 12:10:49;;;;;;;6.05;2.47;;;;;;;12.73;100.00;98977.74;1708820;82;21573;-66
2021/06/02 12:13:31;;;;;;;2.65;2.20;;;;;;;12.76;100.00;98986.08;1744571;80;20884;-66
2021/06/02 12:16:01;;;;;;;3.75;2.22;;;;;;;12.72;100.00;98986.58;1708954;83;20931;-66
2021/06/02 12:18:36;;;;;;;5.17;1.98;;;;;;;12.70;100.00;98987.06;1745002;81;20987;-67
2021/06/02 12:21:21;;;;;;;5.33;2.00;;;;;;;12.67;100.00;98995.50;1745044;81;20927;-66
2021/06/02 12:24:04;;;;;;;3.62;1.85;;;;;;;12.65;100.00;98994.20;1743173;80;21176;-66
2021/06/02 12:26:39;;;;;;;6.62;2.70;;;;;;;12.65;100.00;98996.84;1750340;81;21000;-66
2021/06/02 12:29:10;;;;;;;5.85;2.83;;;;;;;12.69;100.00;98998.99;1753390;80;20896;-68
2021/06/02 12:31:49;;;;;;;4.30;2.80;;;;;;;12.69;100.00;98998.55;1757729;80;20958;-67
2021/06/02 12:34:24;;;;;;;2.25;2.05;;;;;;;12.69;100.00;99005.61;1755127;80;20971;-67
2021/06/02 12:36:54;;;;;;;2.62;1.85;;;;;;;12.66;100.00;98999.92;1754027;80;21826;-66
2021/06/02 12:39:27;;;;;;;;;;;;;;;12.62;100.00;99000.88;1759891;80;21565;-68
2021/06/02 12:41:58;;;;;;;3.52;2.10;;;;;;;12.58;100.00;99004.02;1757477;80;20451;-66
2021/06/02 12:44:31;;;;;;;3.83;2.25;;;;;;;12.56;100.00;99009.78;1757301;80;21449;-66
2021/06/02 12:47:07;;;;;;;3.00;2.05;;;;;;;12.57;100.00;99015.95;1757657;81;21936;-67
2021/06/02 12:49:45;;;;;;;6.65;1.80;;;;;;;12.58;100.00;99013.28;1754911;80;21348;-67
2021/06/02 12:52:15;;;;;;;9.48;2.65;;;;;;;12.59;100.00;99013.70;1754455;80;21499;-66
2021/06/02 12:54:44;;;;;;;3.80;2.05;;;;;;;12.58;100.00;99008.44;1757645;80;21003;-67
2021/06/02 12:57:12;;;;;;;2.42;1.98;;;;;;;12.60;100.00;99018.55;1757343;80;21472;-67
2021/06/02 12:59:42;;;;;;;3.10;2.30;;;;;;;12.61;100.00;99018.52;1757335;80;21002;-66
2021/06/02 13:02:10;;;;;;;3.58;2.40;;;;;;;12.64;100.00;99017.59;1736741;81;21147;-67
2021/06/02 13:04:41;;;;;;;7.17;2.20;;;;;;;12.68;100.00;99019.74;1757508;80;21614;-66
2021/06/02 13:07:11;;;;;;;7.25;2.30;;;;;;;12.68;100.00;99021.94;1725043;81;20888;-66
2021/06/02 13:09:39;;;;;;;3.17;2.30;;;;;;;12.68;100.00;99024.59;1741693;80;21464;-66
2021/06/02 13:12:10;;;;;;;6.92;2.10;;;;;;;12.71;100.00;99028.50;1748699;80;20955;-66
2021/06/02 13:14:41;;;;;;;3.33;2.12;;;;;;;12.77;100.00;99022.23;1719850;83;21683;-66
2021/06/02 13:17:11;;;;;;;5.35;2.17;;;;;;;12.80;100.00;99027.51;1717610;82;20954;-66
2021/06/02 13:19:43;;;;;;;2.90;2.42;;;;;;;12.83;100.00;99024.81;1721164;82;20957;-66
2021/06/02 13:22:23;;;;;;;6.35;2.35;;;;;;;12.84;100.00;99028.75;1694475;84;20976;-67
2021/06/02 13:24:52;;;;;;;4.10;2.12;;;;;;;12.85;100.00;99027.85;1718328;83;21058;-65
2021/06/02 13:27:20;;;;;;;4.03;2.02;;;;;;;12.88;100.00;99030.45;1658898;84;21163;-66
2021/06/02 13:30:09;;;;;;;3.98;2.08;;;;;;;12.89;100.00;99032.19;1739732;80;21395;-66
2021/06/02 13:32:37;;;;;;;3.55;2.02;;;;;;;12.90;100.00;99027.32;1741680;80;21538;-66
2021/06/02 13:35:18;;;;;;;4.92;2.08;;;;;;;12.90;100.00;99019.83;1743865;80;20991;-66
2021/06/02 13:37:46;;;;;;;7.37;1.90;;;;;;;12.90;100.00;99019.38;1743939;81;21016;-68
2021/06/02 13:40:17;;;;;;;2.10;1.80;;;;;;;12.91;100.00;99017.60;1742440;82;21129;-66
2021/06/02 13:43:11;;;;;;;4.75;2.20;;;;;;;12.88;100.00;99025.60;1708063;82;20900;-67
2021/06/02 13:45:54;;;;;;;1.95;1.67;;;;;;;12.85;100.00;99018.59;1742470;80;20984;-66
2021/06/02 13:48:36;;;;;;;5.05;1.80;;;;;;;12.80;100.00;99023.09;1741751;80;20904;-67
2021/06/02 13:51:30;;;;;;;3.95;1.70;;;;;;;12.80;100.00;99019.56;1743136;81;21539;-66
2021/06/02 13:54:29;;;;;;;3.98;1.80;;;;;;;12.78;100.00;99016.07;1741855;80;21157;-66
2021/06/02 13:57:06;;;;;;;2.50;1.85;;;;;;;12.77;100.00;99023.14;1743717;80;21453;-65
2021/06/02 13:59:50;;;;;;;5.50;1.80;;;;;;;12.76;100.00;99029.75;1741161;82;20896;-66
2021/06/02 14:02:22;;;;;;;4.30;1.52;;;;;;;12.77;100.00;99024.47;1742046;82;20948;-65
2021/06/02 14:04:51;;;;;;;2.80;1.50;;;;;;;12.78;100.00;99031.50;1740229;81;21537;-67
2021/06/02 14:07:21;;;;;;;5.22;1.92;;;;;;;12.79;100.00;99031.92;1744178;82;21158;-67
2021/06/02 14:09:50;;;;;;;5.75;1.60;;;;;;;12.80;100.00;99032.35;1739967;81;20928;-68
2021/06/02 14:12:19;;;;;;;4.72;1.65;;;;;;;12.81;100.00;99029.25;1744086;80;21440;-66
2021/06/02 14:14:48;;;;;;;5.53;1.50;;;;;;;12.84;100.00;99032.72;1739881;80;21545;-66
2021/06/02 14:17:18;;;;;;;4.15;1.60;;;;;;;12.87;100.00;99029.15;1744002;81;21436;-66
2021/06/02 14:19:46;;;;;;;3.35;1.75;;;;;;;12.89;100.00;99034.84;1743971;81;21544;-66
2021/06/02 14:22:15;;;;;;;4.97;1.95;;;;;;;12.88;100.00;99031.77;1740706;80;20933;-66
2021/06/02 14:24:43;;;;;;;4.83;1.80;;;;;;;12.90;100.00;99029.09;1740343;80;21023;-66
2021/06/02 14:27:12;;;;;;;11.60;2.65;;;;;;;12.92;100.00;99032.59;1742091;80;21019;-66
2021/06/02 14:29:40;;;;;;;2.90;1.77;;;;;;;12.96;100.00;99034.73;1752007;80;21408;-66
2021/06/02 14:32:09;;;;;;;6.40;1.62;;;;;;;12.99;100.00;99028.05;1751968;80;21166;-67
2021/06/02 14:34:39;;;;;;;3.87;2.05;;;;;;;13.01;100.00;99039.49;1752315;82;20888;-66
2021/06/02 14:37:07;;;;;;;3.20;1.70;;;;;;;13.03;100.00;99033.27;1751949;80;20995;-67
2021/06/02 14:39:36;;;;;;;4.97;1.75;;;;;;;13.05;100.00;99032.80;1751928;82;21033;-67
2021/06/02 14:42:04;;;;;;;5.90;1.72;;;;;;;13.09;100.00;99028.31;1711698;82;20995;-67
2021/06/02 14:44:34;;;;;;;3.70;1.85;;;;;;;13.11;100.00;99031.80;1707393;82;21137;-67
2021/06/02 14:47:04;;;;;;;2.08;1.62;;;;;;;13.15;100.00;99039.67;1710495;82;20981;-67
2021/06/02 14:49:36;;;;;;;5.03;1.80;;;;;;;13.16;100.00;99039.22;1709802;82;21047;-67
2021/06/02 14:52:05;;;;;;;5.12;1.98;;;;;;;13.16;100.00;99040.09;1707523;83;21486;-68
2021/06/02 14:54:33;;;;;;;6.35;1.95;;;;;;;13.20;100.00;99044.91;1706470;82;21079;-67
2021/06/02 14:57:02;;;;;;;5.67;2.35;;;;;;;13.22;100.00;99039.14;1709389;82;21632;-67
2021/06/02 14:59:30;;;;;;;3.10;1.60;;;;;;;13.21;100.00;99042.23;1705697;82;21412;-67
2021/06/02 15:01:58;;;;;;;5.97;1.50;;;;;;;13.22;100.00;99041.34;1710682;82;20958;-67
2021/06/02 15:04:27;;;;;;;3.95;1.72;;;;;;;13.22;100.00;99042.66;1709342;82;21569;-67
2021/06/02 15:06:56;;;;;;;3.17;1.90;;;;;;;13.25;100.00;99037.79;1709815;82;20948;-67
2021/06/02 15:09:24;;;;;;;4.42;1.72;;;;;;;13.26;100.00;99039.98;1710686;82;21080;-66
2021/06/02 15:11:55;;;;;;;4.65;2.02;;;;;;;13.26;100.00;99038.21;1676917;83;21020;-67
2021/06/02 15:14:23;;;;;;;3.62;1.47;;;;;;;13.25;100.00;99039.11;1709940;82;20975;-66
2021/06/02 15:16:54;;;;;;;3.52;1.50;;;;;;;13.25;100.00;99039.11;1706079;82;21082;-66
2021/06/02 15:19:23;;;;;;;3.35;1.77;;;;;;;13.29;100.00;99035.50;1710461;82;20986;-66
2021/06/02 15:21:52;;;;;;;6.45;1.80;;;;;;;13.30;100.00;99029.75;1704530;82;21852;-65
2021/06/02 15:24:22;;;;;;;5.05;1.92;;;;;;;13.32;100.00;99034.13;1708565;82;20896;-65
2021/06/02 15:26:50;;;;;;;5.65;1.45;;;;;;;13.32;100.00;99030.15;1708678;82;21010;-66
2021/06/02 15:29:52;;;;;;;4.17;1.50;;;;;;;13.32;100.00;99039.42;1717171;82;21485;-66
2021/06/02 15:32:26;;;;;;;8.70;2.08;;;;;;;13.35;100.00;99037.16;1716973;82;20944;-66
2021/06/02 15:34:57;;;;;;;4.87;1.57;;;;;;;13.35;100.00;99039.36;1692176;82;21844;-66
2021/06/02 15:37:31;;;;;;;6.67;1.70;;;;;;;13.37;100.00;99041.98;1682755;83;20903;-66
2021/06/02 15:40:05;;;;;;;3.40;1.75;;;;;;;13.36;100.00;99043.75;1690160;83;20959;-67
2021/06/02 15:42:33;;;;;;;3.77;1.50;;;;;;;13.36;100.00;99045.08;1690491;83;21473;-67
2021/06/02 15:45:01;;;;;;;1.95;1.47;;;;;;;13.37;100.00;99054.78;1690233;83;20983;-66
2021/06/02 15:47:29;;;;;;;2.77;1.60;;;;;;;13.38;100.00;99052.55;1662172;85;21167;-66
2021/06/02 15:49:57;;;;;;;3.35;2.10;;;;;;;13.38;100.00;99051.22;1737771;81;21415;-65
2021/06/02 15:52:30;;;;;;;3.85;1.62;;;;;;;13.38;100.00;99049.90;1746932;80;20984;-66
2021/06/02 15:54:59;;;;;;;3.55;1.37;;;;;;;13.39;100.00;99047.67;1746017;81;21058;-67
2021/06/02 15:57:27;;;;;;;7.53;1.82;;;;;;;13.41;100.00;99054.27;1747413;80;20974;-67
2021/06/02 15:59:56;;;;;;;5.15;1.60;;;;;;;13.40;100.00;99054.72;1748310;80;21852;-67
2021/06/02 16:02:24;;;;;;;4.78;1.82;;;;;;;13.40;100.00;99045.89;1743679;80;21018;-67
2021/06/02 16:04:54;;;;;;;5.70;1.80;;;;;;;13.39;100.00;99049.00;1746287;80;21542;-66
2021/06/02 16:07:22;;;;;;;4.80;1.80;;;;;;;13.37;100.00;99052.12;1742781;80;21023;-67
2021/06/02 16:09:51;;;;;;;3.72;1.60;;;;;;;13.37;100.00;99049.93;1746970;80;20942;-66
2021/06/02 16:12:20;;;;;;;4.62;2.00;;;;;;;13.37;100.00;99055.23;1748546;80;21135;-67
2021/06/02 16:14:53;;;;;;;5.40;2.05;;;;;;;13.33;100.00;99046.92;1733543;81;20917;-75
2021/06/02 16:17:22;;;;;;;4.67;1.87;;;;;;;13.32;100.00;99055.77;1758259;80;20917;-71
2021/06/02 16:19:50;;;;;;;4.78;1.60;;;;;;;13.31;100.00;99055.34;1758063;80;20989;-68
2021/06/02 16:22:23;;;;;;;6.92;1.95;;;;;;;13.31;100.00;99056.67;1757666;80;21385;-74
2021/06/02 16:24:51;;;;;;;7.67;1.73;;;;;;;13.30;100.00;99062.42;1758318;80;21530;-66
2021/06/02 16:27:34;;;;;;;69.50;49.58;;;;;;;13.29;100.00;99059.34;1756449;80;20877;-63
2021/06/02 16:30:13;;;;;;;20.77;17.23;;;;;;;13.29;100.00;99054.50;1745042;82;20894;-73
2021/06/02 16:32:44;;;;;;;17.73;10.60;;;;;;;13.30;100.00;99045.65;1744760;80;20933;-70
2021/06/02 16:35:14;;;;;;;17.90;13.10;;;;;;;13.28;100.00;99048.33;1744692;80;20855;-71
2021/06/02 16:37:45;;;;;;;15.40;10.63;;;;;;;13.27;100.00;99051.88;1744835;80;20981;-73
2021/06/02 16:40:14;;;;;;;5.87;4.33;;;;;;;13.25;100.00;99051.03;1744562;80;21024;-73
2021/06/02 16:42:45;;;;;;;4.35;3.40;;;;;;;13.22;100.00;99047.08;1745027;80;20886;-71
2021/06/02 16:45:15;;;;;;;5.28;3.02;;;;;;;13.23;100.00;99051.48;1744756;80;20980;-71
2021/06/02 16:47:45;;;;;;;7.90;3.37;;;;;;;13.22;100.00;99052.38;1745056;80;20934;-73
2021/06/02 16:50:17;;;;;;;7.78;2.75;;;;;;;13.20;100.00;99056.38;1744646;80;21168;-75
2021/06/02 16:52:45;;;;;;;5.92;2.40;;;;;;;13.18;100.00;99056.86;1744541;80;21488;-74
2021/06/02 16:55:15;;;;;;;7.42;2.83;;;;;;;13.18;100.00;99052.02;1744446;80;21017;-73
2021/06/02 16:57:44;;;;;;;6.00;2.55;;;;;;;13.16;100.00;99049.81;1745990;80;20934;-74
2021/06/02 17:00:20;;;;;;;4.45;2.58;;;;;;;13.17;100.00;99050.27;1745357;80;20879;-76
2021/06/02 17:02:48;;;;;;;3.58;2.45;;;;;;;13.15;100.00;99058.20;1745887;80;21114;-75
2021/06/02 17:05:16;;;;;;;4.42;2.17;;;;;;;13.15;100.00;99056.01;1745425;80;21423;-75
2021/06/02 17:07:46;;;;;;;4.65;2.40;;;;;;;13.13;100.00;99055.16;1745457;80;20937;-76
2021/06/02 17:10:16;;;;;;;4.40;1.95;;;;;;;13.12;100.00;99050.32;1730945;81;20960;-76
2021/06/02 17:12:46;;;;;;;8.85;2.50;;;;;;;13.13;100.00;99055.16;1707257;82;21426;-75
2021/06/02 17:15:15;;;;;;;4.92;2.20;;;;;;;13.11;100.00;99056.52;1745379;81;21116;-75
2021/06/02 17:17:51;;;;;;;4.12;2.22;;;;;;;13.08;100.00;99051.27;1745390;81;21399;-73
2021/06/02 17:20:38;;;;;;;8.78;2.55;;;;;;;13.06;100.00;99053.08;1745135;81;20948;-74
2021/06/02 17:23:11;;;;;;;4.37;2.17;;;;;;;13.07;100.00;99061.89;1709561;82;20928;-74
2021/06/02 17:25:42;;;;;;;8.13;2.12;;;;;;;13.09;100.00;99060.97;1745391;80;20849;-73
2021/06/02 17:28:11;;;;;;;3.50;2.12;;;;;;;13.10;100.00;99065.36;1709378;82;21155;-74
2021/06/02 17:30:44;;;;;;;8.23;2.42;;;;;;;13.10;100.00;99068.01;1744821;81;21451;-66
2021/06/02 17:33:11;;;;;;;8.05;1.87;;;;;;;13.04;100.00;99066.80;1744592;82;20873;-65
2021/06/02 17:35:40;;;;;;;10.28;1.87;;;;;;;13.04;100.00;99058.85;1709001;82;20916;-66
2021/06/02 17:38:07;;;;;;;5.78;1.90;;;;;;;13.09;100.00;99070.69;1687308;84;20971;-65
2021/06/02 17:40:39;;;;;;;4.60;2.10;;;;;;;13.09;100.00;99062.73;1744609;80;20873;-65
2021/06/02 17:43:07;;;;;;;8.70;2.62;;;;;;;13.09;100.00;99064.06;1708781;82;20884;-66
2021/06/02 17:45:37;;;;;;;3.58;1.92;;;;;;;13.11;100.00;99070.20;1744606;81;21503;-66
2021/06/02 17:48:09;;;;;;;4.30;2.47;;;;;;;13.11;100.00;99072.41;1708776;82;21541;-66
2021/06/02 17:50:39;;;;;;;6.58;2.08;;;;;;;13.13;100.00;99077.23;1708776;84;20891;-66
2021/06/02 17:53:10;;;;;;;6.00;1.90;;;;;;;13.16;100.00;99075.84;1744576;80;21176;-66
2021/06/02 17:55:39;;;;;;;8.93;2.00;;;;;;;13.17;100.00;99081.60;1744591;81;21393;-66
2021/06/02 17:58:07;;;;;;;5.70;2.12;;;;;;;13.18;100.00;99080.70;1744699;82;20937;-67
2021/06/02 18:00:37;;;;;;;4.30;1.72;;;;;;;13.20;100.00;99088.62;1744518;80;20959;-66
2021/06/02 18:03:06;;;;;;;9.48;3.42;;;;;;;13.20;100.00;99082.88;1708878;82;21565;-66
2021/06/02 18:05:35;;;;;;;5.55;4.17;;;;;;;13.22;100.00;99090.34;1744553;81;21095;-66
2021/06/02 18:08:05;;;;;;;9.03;3.30;;;;;;;13.26;100.00;99094.29;1700411;83;21639;-66
2021/06/02 18:10:37;;;;;;;7.20;4.08;;;;;;;13.21;100.00;99095.21;1732497;80;20987;-66
2021/06/02 18:13:06;;;;;;;9.48;5.92;;;;;;;13.22;100.00;99099.61;1738286;80;20975;-66
2021/06/02 18:15:34;;;;;;;10.63;6.55;;;;;;;13.23;100.00;99097.38;1730139;82;21023;-65
2021/06/02 18:18:17;;;;;;;7.87;4.35;;;;;;;13.25;100.00;99104.02;1714838;82;22036;-66
2021/06/02 18:20:48;;;;;;;4.40;2.87;;;;;;;13.26;100.00;99105.76;1699087;83;20860;-66